sensor_id;sensor_type;location;lat;lon;timestamp;P1;durP1;ratioP1;P2;durP2;ratioP2
15706;SDS011;7953;54.302;10.128;2023-04-15T00:02:13;8.80;;;7.37;;
15706;SDS011;7953;54.302;10.128;2023-04-15T00:04:43;10.57;;;8.60;;
15706;SDS011;7953;54.302;10.128;2023-04-15T00:07:10;11.10;;;8.40;;
15706;SDS011;7953;54.302;10.128;2023-04-15T00:09:37;10.87;;;8.00;;
15706;SDS011;7953;54.302;10.128;2023-04-15T00:12:04;11.33;;;8.50;;
15706;SDS011;7953;54.302;10.128;2023-04-15T00:14:32;9.10;;;7.87;;
15706;SDS011;7953;54.302;10.128;2023-04-15T00:16:59;10.17;;;7.93;;
15706;SDS011;7953;54.302;10.128;2023-04-15T00:19:26;11.57;;;8.83;;
15706;SDS011;7953;54.302;10.128;2023-04-15T00:21:55;10.03;;;8.87;;
15706;SDS011;7953;54.302;10.128;2023-04-15T00:24:22;11.27;;;8.80;;
15706;SDS011;7953;54.302;10.128;2023-04-15T00:26:49;11.77;;;9.43;;
15706;SDS011;7953;54.302;10.128;2023-04-15T00:29:16;14.23;;;9.90;;
15706;SDS011;7953;54.302;10.128;2023-04-15T00:31:43;12.70;;;8.87;;
15706;SDS011;7953;54.302;10.128;2023-04-15T00:34:10;13.60;;;10.13;;
15706;SDS011;7953;54.302;10.128;2023-04-15T00:36:37;13.93;;;10.57;;
15706;SDS011;7953;54.302;10.128;2023-04-15T00:39:05;12.13;;;9.70;;
15706;SDS011;7953;54.302;10.128;2023-04-15T00:41:32;14.03;;;9.07;;
15706;SDS011;7953;54.302;10.128;2023-04-15T00:43:59;11.83;;;10.00;;
15706;SDS011;7953;54.302;10.128;2023-04-15T00:46:27;13.27;;;10.07;;
15706;SDS011;7953;54.302;10.128;2023-04-15T00:48:55;10.27;;;8.37;;
15706;SDS011;7953;54.302;10.128;2023-04-15T00:51:22;11.90;;;9.67;;
15706;SDS011;7953;54.302;10.128;2023-04-15T00:53:49;14.17;;;9.57;;
15706;SDS011;7953;54.302;10.128;2023-04-15T00:56:18;10.70;;;8.83;;
15706;SDS011;7953;54.302;10.128;2023-04-15T00:58:48;13.30;;;8.60;;
15706;SDS011;7953;54.302;10.128;2023-04-15T01:01:16;11.37;;;8.63;;
15706;SDS011;7953;54.302;10.128;2023-04-15T01:03:45;12.50;;;9.27;;
15706;SDS011;7953;54.302;10.128;2023-04-15T01:06:13;10.10;;;8.40;;
15706;SDS011;7953;54.302;10.128;2023-04-15T01:08:41;11.67;;;8.93;;
15706;SDS011;7953;54.302;10.128;2023-04-15T01:11:08;12.20;;;9.37;;
15706;SDS011;7953;54.302;10.128;2023-04-15T01:13:39;12.93;;;9.53;;
15706;SDS011;7953;54.302;10.128;2023-04-15T01:16:06;11.20;;;9.03;;
15706;SDS011;7953;54.302;10.128;2023-04-15T01:18:33;12.73;;;9.50;;
15706;SDS011;7953;54.302;10.128;2023-04-15T01:21:01;13.10;;;8.90;;
15706;SDS011;7953;54.302;10.128;2023-04-15T01:23:30;11.80;;;8.87;;
15706;SDS011;7953;54.302;10.128;2023-04-15T01:25:59;11.27;;;8.83;;
15706;SDS011;7953;54.302;10.128;2023-04-15T01:28:26;12.37;;;9.93;;
15706;SDS011;7953;54.302;10.128;2023-04-15T01:31:03;13.40;;;10.10;;
15706;SDS011;7953;54.302;10.128;2023-04-15T01:33:32;14.13;;;10.20;;
15706;SDS011;7953;54.302;10.128;2023-04-15T01:35:59;14.60;;;10.27;;
15706;SDS011;7953;54.302;10.128;2023-04-15T01:38:26;14.93;;;10.73;;
15706;SDS011;7953;54.302;10.128;2023-04-15T01:40:54;16.50;;;11.57;;
15706;SDS011;7953;54.302;10.128;2023-04-15T01:43:23;16.60;;;11.87;;
15706;SDS011;7953;54.302;10.128;2023-04-15T01:45:49;17.50;;;11.67;;
15706;SDS011;7953;54.302;10.128;2023-04-15T01:48:16;14.80;;;11.53;;
15706;SDS011;7953;54.302;10.128;2023-04-15T01:50:43;17.20;;;12.20;;
15706;SDS011;7953;54.302;10.128;2023-04-15T01:53:10;16.30;;;11.33;;
15706;SDS011;7953;54.302;10.128;2023-04-15T01:55:37;19.07;;;11.97;;
15706;SDS011;7953;54.302;10.128;2023-04-15T01:58:05;18.60;;;12.00;;
15706;SDS011;7953;54.302;10.128;2023-04-15T02:00:33;17.73;;;11.97;;
15706;SDS011;7953;54.302;10.128;2023-04-15T02:03:00;17.83;;;11.47;;
15706;SDS011;7953;54.302;10.128;2023-04-15T02:05:27;19.70;;;11.43;;
15706;SDS011;7953;54.302;10.128;2023-04-15T02:07:54;13.50;;;10.20;;
15706;SDS011;7953;54.302;10.128;2023-04-15T02:10:21;16.67;;;10.77;;
15706;SDS011;7953;54.302;10.128;2023-04-15T02:12:48;15.07;;;9.93;;
15706;SDS011;7953;54.302;10.128;2023-04-15T02:15:15;16.87;;;11.43;;
15706;SDS011;7953;54.302;10.128;2023-04-15T02:17:43;13.90;;;10.20;;
15706;SDS011;7953;54.302;10.128;2023-04-15T02:20:14;19.83;;;12.07;;
15706;SDS011;7953;54.302;10.128;2023-04-15T02:22:41;19.87;;;12.00;;
15706;SDS011;7953;54.302;10.128;2023-04-15T02:25:08;19.23;;;13.10;;
15706;SDS011;7953;54.302;10.128;2023-04-15T02:27:36;17.40;;;12.60;;
15706;SDS011;7953;54.302;10.128;2023-04-15T02:30:03;18.50;;;13.17;;
15706;SDS011;7953;54.302;10.128;2023-04-15T02:32:31;22.07;;;14.50;;
15706;SDS011;7953;54.302;10.128;2023-04-15T02:35:02;19.80;;;14.23;;
15706;SDS011;7953;54.302;10.128;2023-04-15T02:37:29;20.10;;;14.80;;
15706;SDS011;7953;54.302;10.128;2023-04-15T02:40:00;21.53;;;14.70;;
15706;SDS011;7953;54.302;10.128;2023-04-15T02:42:28;21.17;;;14.47;;
15706;SDS011;7953;54.302;10.128;2023-04-15T02:44:56;21.03;;;15.20;;
15706;SDS011;7953;54.302;10.128;2023-04-15T02:47:23;20.83;;;14.43;;
15706;SDS011;7953;54.302;10.128;2023-04-15T02:49:50;22.20;;;15.47;;
15706;SDS011;7953;54.302;10.128;2023-04-15T02:52:18;20.70;;;15.53;;
15706;SDS011;7953;54.302;10.128;2023-04-15T02:54:45;22.33;;;15.97;;
15706;SDS011;7953;54.302;10.128;2023-04-15T02:57:12;21.43;;;16.07;;
15706;SDS011;7953;54.302;10.128;2023-04-15T02:59:39;21.30;;;14.43;;
15706;SDS011;7953;54.302;10.128;2023-04-15T03:02:06;19.60;;;14.47;;
15706;SDS011;7953;54.302;10.128;2023-04-15T03:04:33;19.67;;;14.63;;
15706;SDS011;7953;54.302;10.128;2023-04-15T03:07:00;20.97;;;14.53;;
15706;SDS011;7953;54.302;10.128;2023-04-15T03:09:28;23.63;;;15.93;;
15706;SDS011;7953;54.302;10.128;2023-04-15T03:11:56;20.90;;;14.53;;
15706;SDS011;7953;54.302;10.128;2023-04-15T03:14:23;21.63;;;14.87;;
15706;SDS011;7953;54.302;10.128;2023-04-15T03:16:50;21.97;;;14.90;;
15706;SDS011;7953;54.302;10.128;2023-04-15T03:19:17;21.00;;;14.03;;
15706;SDS011;7953;54.302;10.128;2023-04-15T03:21:43;20.77;;;15.50;;
15706;SDS011;7953;54.302;10.128;2023-04-15T03:24:10;24.40;;;15.93;;
15706;SDS011;7953;54.302;10.128;2023-04-15T03:26:38;25.13;;;16.03;;
15706;SDS011;7953;54.302;10.128;2023-04-15T03:29:05;23.23;;;16.40;;
15706;SDS011;7953;54.302;10.128;2023-04-15T03:31:32;23.97;;;16.77;;
15706;SDS011;7953;54.302;10.128;2023-04-15T03:33:59;27.03;;;18.20;;
15706;SDS011;7953;54.302;10.128;2023-04-15T03:36:27;30.90;;;19.37;;
15706;SDS011;7953;54.302;10.128;2023-04-15T03:38:55;24.60;;;18.50;;
15706;SDS011;7953;54.302;10.128;2023-04-15T03:41:22;27.67;;;19.00;;
15706;SDS011;7953;54.302;10.128;2023-04-15T03:43:50;29.57;;;19.67;;
15706;SDS011;7953;54.302;10.128;2023-04-15T03:46:17;28.03;;;20.53;;
15706;SDS011;7953;54.302;10.128;2023-04-15T03:48:45;33.47;;;20.63;;
15706;SDS011;7953;54.302;10.128;2023-04-15T03:51:12;30.47;;;21.27;;
15706;SDS011;7953;54.302;10.128;2023-04-15T03:53:39;33.03;;;23.73;;
15706;SDS011;7953;54.302;10.128;2023-04-15T03:56:06;35.33;;;23.93;;
15706;SDS011;7953;54.302;10.128;2023-04-15T03:58:33;33.83;;;23.80;;
15706;SDS011;7953;54.302;10.128;2023-04-15T04:01:02;34.13;;;23.13;;
15706;SDS011;7953;54.302;10.128;2023-04-15T04:03:28;36.43;;;23.90;;
15706;SDS011;7953;54.302;10.128;2023-04-15T04:05:55;39.83;;;23.80;;
15706;SDS011;7953;54.302;10.128;2023-04-15T04:08:22;39.23;;;23.73;;
15706;SDS011;7953;54.302;10.128;2023-04-15T04:10:49;37.70;;;24.50;;
15706;SDS011;7953;54.302;10.128;2023-04-15T04:13:16;36.73;;;24.53;;
15706;SDS011;7953;54.302;10.128;2023-04-15T04:15:43;36.00;;;24.40;;
15706;SDS011;7953;54.302;10.128;2023-04-15T04:18:11;33.40;;;23.07;;
15706;SDS011;7953;54.302;10.128;2023-04-15T04:20:38;35.07;;;23.70;;
15706;SDS011;7953;54.302;10.128;2023-04-15T04:23:05;37.27;;;24.53;;
15706;SDS011;7953;54.302;10.128;2023-04-15T04:25:32;36.30;;;24.43;;
15706;SDS011;7953;54.302;10.128;2023-04-15T04:27:59;39.83;;;24.17;;
15706;SDS011;7953;54.302;10.128;2023-04-15T04:30:25;40.57;;;27.10;;
15706;SDS011;7953;54.302;10.128;2023-04-15T04:32:52;40.63;;;29.00;;
15706;SDS011;7953;54.302;10.128;2023-04-15T04:35:21;42.80;;;28.73;;
15706;SDS011;7953;54.302;10.128;2023-04-15T04:37:47;41.60;;;27.53;;
15706;SDS011;7953;54.302;10.128;2023-04-15T04:40:15;41.80;;;26.40;;
15706;SDS011;7953;54.302;10.128;2023-04-15T04:42:41;40.27;;;28.17;;
15706;SDS011;7953;54.302;10.128;2023-04-15T04:45:08;42.17;;;27.67;;
15706;SDS011;7953;54.302;10.128;2023-04-15T04:47:36;38.73;;;27.67;;
15706;SDS011;7953;54.302;10.128;2023-04-15T04:50:03;43.87;;;29.40;;
15706;SDS011;7953;54.302;10.128;2023-04-15T04:52:32;41.93;;;29.93;;
15706;SDS011;7953;54.302;10.128;2023-04-15T04:54:59;42.63;;;29.73;;
15706;SDS011;7953;54.302;10.128;2023-04-15T04:57:25;43.23;;;30.07;;
15706;SDS011;7953;54.302;10.128;2023-04-15T04:59:52;46.13;;;30.23;;
15706;SDS011;7953;54.302;10.128;2023-04-15T05:02:19;43.00;;;28.87;;
15706;SDS011;7953;54.302;10.128;2023-04-15T05:04:46;41.33;;;29.93;;
15706;SDS011;7953;54.302;10.128;2023-04-15T05:07:14;42.03;;;29.07;;
15706;SDS011;7953;54.302;10.128;2023-04-15T05:09:42;42.03;;;30.33;;
15706;SDS011;7953;54.302;10.128;2023-04-15T05:12:09;43.93;;;31.17;;
15706;SDS011;7953;54.302;10.128;2023-04-15T05:14:39;43.23;;;30.33;;
15706;SDS011;7953;54.302;10.128;2023-04-15T05:17:06;45.87;;;30.57;;
15706;SDS011;7953;54.302;10.128;2023-04-15T05:19:32;47.33;;;31.30;;
15706;SDS011;7953;54.302;10.128;2023-04-15T05:22:00;48.10;;;30.57;;
15706;SDS011;7953;54.302;10.128;2023-04-15T05:24:27;44.80;;;30.70;;
15706;SDS011;7953;54.302;10.128;2023-04-15T05:26:55;44.77;;;29.93;;
15706;SDS011;7953;54.302;10.128;2023-04-15T05:29:22;46.10;;;29.03;;
15706;SDS011;7953;54.302;10.128;2023-04-15T05:31:49;49.03;;;32.67;;
15706;SDS011;7953;54.302;10.128;2023-04-15T05:34:16;45.17;;;31.73;;
15706;SDS011;7953;54.302;10.128;2023-04-15T05:36:43;43.23;;;30.77;;
15706;SDS011;7953;54.302;10.128;2023-04-15T05:39:10;42.07;;;29.70;;
15706;SDS011;7953;54.302;10.128;2023-04-15T05:41:36;40.13;;;28.90;;
15706;SDS011;7953;54.302;10.128;2023-04-15T05:44:05;44.07;;;30.63;;
15706;SDS011;7953;54.302;10.128;2023-04-15T05:46:32;39.73;;;29.33;;
15706;SDS011;7953;54.302;10.128;2023-04-15T05:48:59;37.70;;;27.87;;
15706;SDS011;7953;54.302;10.128;2023-04-15T05:51:25;40.50;;;28.63;;
15706;SDS011;7953;54.302;10.128;2023-04-15T05:53:52;37.43;;;27.97;;
15706;SDS011;7953;54.302;10.128;2023-04-15T05:56:19;43.40;;;30.03;;
15706;SDS011;7953;54.302;10.128;2023-04-15T05:58:46;44.20;;;30.13;;
15706;SDS011;7953;54.302;10.128;2023-04-15T06:01:14;40.03;;;27.70;;
15706;SDS011;7953;54.302;10.128;2023-04-15T06:03:41;47.70;;;30.33;;
15706;SDS011;7953;54.302;10.128;2023-04-15T06:06:08;46.17;;;30.80;;
15706;SDS011;7953;54.302;10.128;2023-04-15T06:08:35;48.83;;;30.53;;
15706;SDS011;7953;54.302;10.128;2023-04-15T06:11:02;44.37;;;30.97;;
15706;SDS011;7953;54.302;10.128;2023-04-15T06:13:30;42.40;;;30.30;;
15706;SDS011;7953;54.302;10.128;2023-04-15T06:15:56;43.20;;;29.07;;
15706;SDS011;7953;54.302;10.128;2023-04-15T06:18:25;43.50;;;31.20;;
15706;SDS011;7953;54.302;10.128;2023-04-15T06:20:52;48.47;;;31.17;;
15706;SDS011;7953;54.302;10.128;2023-04-15T06:23:19;43.83;;;30.80;;
15706;SDS011;7953;54.302;10.128;2023-04-15T06:25:46;53.10;;;33.40;;
15706;SDS011;7953;54.302;10.128;2023-04-15T06:28:13;46.37;;;30.93;;
15706;SDS011;7953;54.302;10.128;2023-04-15T06:30:40;42.67;;;32.10;;
15706;SDS011;7953;54.302;10.128;2023-04-15T06:33:07;40.90;;;31.40;;
15706;SDS011;7953;54.302;10.128;2023-04-15T06:35:36;47.60;;;31.63;;
15706;SDS011;7953;54.302;10.128;2023-04-15T06:38:03;49.63;;;31.83;;
15706;SDS011;7953;54.302;10.128;2023-04-15T06:40:30;40.53;;;31.20;;
15706;SDS011;7953;54.302;10.128;2023-04-15T06:42:57;44.50;;;30.50;;
15706;SDS011;7953;54.302;10.128;2023-04-15T06:45:24;45.87;;;30.90;;
15706;SDS011;7953;54.302;10.128;2023-04-15T06:47:51;44.93;;;31.00;;
15706;SDS011;7953;54.302;10.128;2023-04-15T06:50:18;35.33;;;28.77;;
15706;SDS011;7953;54.302;10.128;2023-04-15T06:52:46;38.80;;;29.67;;
15706;SDS011;7953;54.302;10.128;2023-04-15T06:55:13;42.00;;;29.80;;
15706;SDS011;7953;54.302;10.128;2023-04-15T06:57:40;39.37;;;29.30;;
15706;SDS011;7953;54.302;10.128;2023-04-15T07:00:07;38.03;;;27.73;;
15706;SDS011;7953;54.302;10.128;2023-04-15T07:02:36;37.73;;;27.60;;
15706;SDS011;7953;54.302;10.128;2023-04-15T07:05:04;33.30;;;27.23;;
15706;SDS011;7953;54.302;10.128;2023-04-15T07:07:32;37.43;;;27.03;;
15706;SDS011;7953;54.302;10.128;2023-04-15T07:10:01;36.17;;;26.90;;
15706;SDS011;7953;54.302;10.128;2023-04-15T07:12:28;31.57;;;25.20;;
15706;SDS011;7953;54.302;10.128;2023-04-15T07:14:55;39.53;;;26.40;;
15706;SDS011;7953;54.302;10.128;2023-04-15T07:17:22;35.77;;;27.27;;
15706;SDS011;7953;54.302;10.128;2023-04-15T07:19:49;40.23;;;32.30;;
15706;SDS011;7953;54.302;10.128;2023-04-15T07:22:16;54.03;;;45.00;;
15706;SDS011;7953;54.302;10.128;2023-04-15T07:24:42;62.10;;;53.20;;
15706;SDS011;7953;54.302;10.128;2023-04-15T07:27:11;49.80;;;42.90;;
15706;SDS011;7953;54.302;10.128;2023-04-15T07:29:38;35.10;;;30.63;;
15706;SDS011;7953;54.302;10.128;2023-04-15T07:32:05;40.67;;;30.53;;
15706;SDS011;7953;54.302;10.128;2023-04-15T07:34:32;40.50;;;27.43;;
15706;SDS011;7953;54.302;10.128;2023-04-15T07:36:59;38.47;;;26.67;;
15706;SDS011;7953;54.302;10.128;2023-04-15T07:39:26;35.50;;;26.10;;
15706;SDS011;7953;54.302;10.128;2023-04-15T07:41:53;37.50;;;25.80;;
15706;SDS011;7953;54.302;10.128;2023-04-15T07:44:21;37.53;;;26.40;;
15706;SDS011;7953;54.302;10.128;2023-04-15T07:46:48;40.27;;;26.27;;
15706;SDS011;7953;54.302;10.128;2023-04-15T07:49:15;31.30;;;24.93;;
15706;SDS011;7953;54.302;10.128;2023-04-15T07:51:43;33.27;;;25.33;;
15706;SDS011;7953;54.302;10.128;2023-04-15T07:54:10;32.30;;;25.83;;
15706;SDS011;7953;54.302;10.128;2023-04-15T07:56:37;33.27;;;26.40;;
15706;SDS011;7953;54.302;10.128;2023-04-15T07:59:04;36.83;;;27.90;;
15706;SDS011;7953;54.302;10.128;2023-04-15T08:01:32;35.57;;;26.27;;
15706;SDS011;7953;54.302;10.128;2023-04-15T08:03:59;33.80;;;25.87;;
15706;SDS011;7953;54.302;10.128;2023-04-15T08:06:27;35.43;;;26.13;;
15706;SDS011;7953;54.302;10.128;2023-04-15T08:08:54;34.43;;;25.23;;
15706;SDS011;7953;54.302;10.128;2023-04-15T08:11:20;34.77;;;26.47;;
15706;SDS011;7953;54.302;10.128;2023-04-15T08:13:48;34.00;;;24.83;;
15706;SDS011;7953;54.302;10.128;2023-04-15T08:16:16;37.13;;;25.57;;
15706;SDS011;7953;54.302;10.128;2023-04-15T08:18:46;33.60;;;24.87;;
15706;SDS011;7953;54.302;10.128;2023-04-15T08:21:13;28.93;;;22.60;;
15706;SDS011;7953;54.302;10.128;2023-04-15T08:23:40;30.30;;;22.57;;
15706;SDS011;7953;54.302;10.128;2023-04-15T08:26:08;27.23;;;21.53;;
15706;SDS011;7953;54.302;10.128;2023-04-15T08:28:36;28.70;;;23.83;;
15706;SDS011;7953;54.302;10.128;2023-04-15T08:31:04;31.50;;;24.53;;
15706;SDS011;7953;54.302;10.128;2023-04-15T08:33:32;28.43;;;23.63;;
15706;SDS011;7953;54.302;10.128;2023-04-15T08:36:00;32.57;;;23.83;;
15706;SDS011;7953;54.302;10.128;2023-04-15T08:38:27;29.57;;;21.10;;
15706;SDS011;7953;54.302;10.128;2023-04-15T08:40:54;27.70;;;22.70;;
15706;SDS011;7953;54.302;10.128;2023-04-15T08:43:23;28.90;;;23.33;;
15706;SDS011;7953;54.302;10.128;2023-04-15T08:45:54;28.37;;;22.73;;
15706;SDS011;7953;54.302;10.128;2023-04-15T08:48:24;28.83;;;23.47;;
15706;SDS011;7953;54.302;10.128;2023-04-15T08:50:55;32.83;;;24.70;;
15706;SDS011;7953;54.302;10.128;2023-04-15T08:53:24;30.10;;;22.57;;
15706;SDS011;7953;54.302;10.128;2023-04-15T08:55:54;30.60;;;24.10;;
15706;SDS011;7953;54.302;10.128;2023-04-15T08:58:23;29.10;;;22.67;;
15706;SDS011;7953;54.302;10.128;2023-04-15T09:00:50;26.97;;;22.73;;
15706;SDS011;7953;54.302;10.128;2023-04-15T09:03:18;27.43;;;21.57;;
15706;SDS011;7953;54.302;10.128;2023-04-15T09:05:46;30.33;;;22.63;;
15706;SDS011;7953;54.302;10.128;2023-04-15T09:08:14;30.57;;;22.63;;
15706;SDS011;7953;54.302;10.128;2023-04-15T09:10:42;27.37;;;22.47;;
15706;SDS011;7953;54.302;10.128;2023-04-15T09:13:09;26.57;;;22.40;;
15706;SDS011;7953;54.302;10.128;2023-04-15T09:15:37;26.50;;;21.07;;
15706;SDS011;7953;54.302;10.128;2023-04-15T09:18:04;24.30;;;20.47;;
15706;SDS011;7953;54.302;10.128;2023-04-15T09:20:34;27.37;;;21.97;;
15706;SDS011;7953;54.302;10.128;2023-04-15T09:23:10;27.67;;;22.30;;
15706;SDS011;7953;54.302;10.128;2023-04-15T09:25:38;25.20;;;21.73;;
15706;SDS011;7953;54.302;10.128;2023-04-15T09:28:08;29.87;;;21.37;;
15706;SDS011;7953;54.302;10.128;2023-04-15T09:30:36;27.10;;;20.93;;
15706;SDS011;7953;54.302;10.128;2023-04-15T09:33:03;33.90;;;20.93;;
15706;SDS011;7953;54.302;10.128;2023-04-15T09:35:32;27.03;;;20.07;;
15706;SDS011;7953;54.302;10.128;2023-04-15T09:38:03;25.03;;;20.93;;
15706;SDS011;7953;54.302;10.128;2023-04-15T09:40:32;28.23;;;20.67;;
15706;SDS011;7953;54.302;10.128;2023-04-15T09:43:00;28.10;;;20.93;;
15706;SDS011;7953;54.302;10.128;2023-04-15T09:45:28;23.60;;;19.60;;
15706;SDS011;7953;54.302;10.128;2023-04-15T09:47:56;25.13;;;19.37;;
15706;SDS011;7953;54.302;10.128;2023-04-15T09:50:23;22.97;;;19.70;;
15706;SDS011;7953;54.302;10.128;2023-04-15T09:52:53;22.40;;;18.73;;
15706;SDS011;7953;54.302;10.128;2023-04-15T09:55:20;24.57;;;18.40;;
15706;SDS011;7953;54.302;10.128;2023-04-15T09:57:47;23.57;;;18.93;;
15706;SDS011;7953;54.302;10.128;2023-04-15T10:00:14;22.07;;;18.10;;
15706;SDS011;7953;54.302;10.128;2023-04-15T10:02:44;22.80;;;18.33;;
15706;SDS011;7953;54.302;10.128;2023-04-15T10:05:14;19.83;;;17.63;;
15706;SDS011;7953;54.302;10.128;2023-04-15T10:07:41;22.57;;;17.60;;
15706;SDS011;7953;54.302;10.128;2023-04-15T10:10:10;20.53;;;16.83;;
15706;SDS011;7953;54.302;10.128;2023-04-15T10:12:38;19.97;;;17.40;;
15706;SDS011;7953;54.302;10.128;2023-04-15T10:15:06;19.53;;;17.43;;
15706;SDS011;7953;54.302;10.128;2023-04-15T10:17:40;21.07;;;17.13;;
15706;SDS011;7953;54.302;10.128;2023-04-15T10:20:11;19.17;;;16.60;;
15706;SDS011;7953;54.302;10.128;2023-04-15T10:22:39;21.40;;;17.17;;
15706;SDS011;7953;54.302;10.128;2023-04-15T10:25:07;18.43;;;16.60;;
15706;SDS011;7953;54.302;10.128;2023-04-15T10:27:35;20.03;;;16.37;;
15706;SDS011;7953;54.302;10.128;2023-04-15T10:30:05;20.43;;;16.67;;
15706;SDS011;7953;54.302;10.128;2023-04-15T10:32:33;22.13;;;17.90;;
15706;SDS011;7953;54.302;10.128;2023-04-15T10:35:02;21.13;;;17.10;;
15706;SDS011;7953;54.302;10.128;2023-04-15T10:37:34;20.27;;;16.90;;
15706;SDS011;7953;54.302;10.128;2023-04-15T10:40:22;20.37;;;16.97;;
15706;SDS011;7953;54.302;10.128;2023-04-15T10:42:56;21.00;;;16.37;;
15706;SDS011;7953;54.302;10.128;2023-04-15T10:45:27;18.47;;;16.47;;
15706;SDS011;7953;54.302;10.128;2023-04-15T10:47:57;18.73;;;16.77;;
15706;SDS011;7953;54.302;10.128;2023-04-15T10:50:29;18.20;;;16.23;;
15706;SDS011;7953;54.302;10.128;2023-04-15T10:52:57;19.93;;;17.83;;
15706;SDS011;7953;54.302;10.128;2023-04-15T10:55:25;21.40;;;16.40;;
15706;SDS011;7953;54.302;10.128;2023-04-15T10:57:53;18.53;;;16.53;;
15706;SDS011;7953;54.302;10.128;2023-04-15T11:00:23;22.20;;;17.77;;
15706;SDS011;7953;54.302;10.128;2023-04-15T11:02:52;19.07;;;17.07;;
15706;SDS011;7953;54.302;10.128;2023-04-15T11:05:21;20.17;;;18.03;;
15706;SDS011;7953;54.302;10.128;2023-04-15T11:08:10;20.53;;;17.10;;
15706;SDS011;7953;54.302;10.128;2023-04-15T11:13:22;19.07;;;17.27;;
15706;SDS011;7953;54.302;10.128;2023-04-15T11:15:57;21.20;;;17.17;;
15706;SDS011;7953;54.302;10.128;2023-04-15T11:18:26;20.30;;;17.77;;
15706;SDS011;7953;54.302;10.128;2023-04-15T11:20:55;20.27;;;18.17;;
15706;SDS011;7953;54.302;10.128;2023-04-15T11:23:28;21.27;;;18.97;;
15706;SDS011;7953;54.302;10.128;2023-04-15T11:25:57;21.70;;;18.83;;
15706;SDS011;7953;54.302;10.128;2023-04-15T11:28:25;20.87;;;18.80;;
15706;SDS011;7953;54.302;10.128;2023-04-15T11:30:53;22.00;;;18.93;;
15706;SDS011;7953;54.302;10.128;2023-04-15T11:33:21;24.93;;;20.50;;
15706;SDS011;7953;54.302;10.128;2023-04-15T11:35:49;23.40;;;19.43;;
15706;SDS011;7953;54.302;10.128;2023-04-15T11:38:17;23.33;;;18.67;;
15706;SDS011;7953;54.302;10.128;2023-04-15T11:40:45;20.87;;;18.67;;
15706;SDS011;7953;54.302;10.128;2023-04-15T11:43:13;20.97;;;18.60;;
15706;SDS011;7953;54.302;10.128;2023-04-15T11:45:47;22.57;;;18.33;;
15706;SDS011;7953;54.302;10.128;2023-04-15T11:48:17;21.93;;;19.53;;
15706;SDS011;7953;54.302;10.128;2023-04-15T11:50:45;24.07;;;19.37;;
15706;SDS011;7953;54.302;10.128;2023-04-15T11:53:12;21.70;;;19.40;;
15706;SDS011;7953;54.302;10.128;2023-04-15T11:55:42;23.93;;;18.87;;
15706;SDS011;7953;54.302;10.128;2023-04-15T11:58:13;22.67;;;20.10;;
15706;SDS011;7953;54.302;10.128;2023-04-15T12:00:44;22.23;;;19.90;;
15706;SDS011;7953;54.302;10.128;2023-04-15T12:03:14;22.07;;;18.47;;
15706;SDS011;7953;54.302;10.128;2023-04-15T12:06:02;23.20;;;19.87;;
15706;SDS011;7953;54.302;10.128;2023-04-15T12:08:51;20.90;;;18.70;;
15706;SDS011;7953;54.302;10.128;2023-04-15T12:11:29;20.97;;;18.80;;
15706;SDS011;7953;54.302;10.128;2023-04-15T12:14:06;21.10;;;18.90;;
15706;SDS011;7953;54.302;10.128;2023-04-15T12:16:35;20.47;;;18.37;;
15706;SDS011;7953;54.302;10.128;2023-04-15T12:19:04;20.90;;;18.37;;
15706;SDS011;7953;54.302;10.128;2023-04-15T12:21:34;20.07;;;17.97;;
15706;SDS011;7953;54.302;10.128;2023-04-15T12:24:03;20.13;;;17.97;;
15706;SDS011;7953;54.302;10.128;2023-04-15T12:26:33;23.90;;;18.90;;
15706;SDS011;7953;54.302;10.128;2023-04-15T12:29:02;21.97;;;18.83;;
15706;SDS011;7953;54.302;10.128;2023-04-15T12:31:32;21.00;;;18.60;;
15706;SDS011;7953;54.302;10.128;2023-04-15T12:34:00;22.67;;;19.63;;
15706;SDS011;7953;54.302;10.128;2023-04-15T12:36:28;21.97;;;18.80;;
15706;SDS011;7953;54.302;10.128;2023-04-15T12:39:00;21.77;;;18.97;;
15706;SDS011;7953;54.302;10.128;2023-04-15T12:41:28;20.80;;;18.37;;
15706;SDS011;7953;54.302;10.128;2023-04-15T12:43:55;22.80;;;20.43;;
15706;SDS011;7953;54.302;10.128;2023-04-15T12:46:21;20.47;;;18.07;;
15706;SDS011;7953;54.302;10.128;2023-04-15T12:48:50;26.37;;;19.60;;
15706;SDS011;7953;54.302;10.128;2023-04-15T12:51:17;21.93;;;18.70;;
15706;SDS011;7953;54.302;10.128;2023-04-15T12:53:45;21.97;;;19.60;;
15706;SDS011;7953;54.302;10.128;2023-04-15T12:56:13;22.90;;;19.97;;
15706;SDS011;7953;54.302;10.128;2023-04-15T12:58:40;20.93;;;18.73;;
15706;SDS011;7953;54.302;10.128;2023-04-15T13:01:07;22.07;;;19.67;;
15706;SDS011;7953;54.302;10.128;2023-04-15T13:03:35;21.33;;;19.03;;
15706;SDS011;7953;54.302;10.128;2023-04-15T13:06:03;22.33;;;18.43;;
15706;SDS011;7953;54.302;10.128;2023-04-15T13:08:31;19.97;;;18.07;;
15706;SDS011;7953;54.302;10.128;2023-04-15T13:10:58;22.17;;;19.70;;
15706;SDS011;7953;54.302;10.128;2023-04-15T13:13:25;20.57;;;18.47;;
15706;SDS011;7953;54.302;10.128;2023-04-15T13:15:52;19.90;;;17.80;;
15706;SDS011;7953;54.302;10.128;2023-04-15T13:18:19;23.10;;;18.50;;
15706;SDS011;7953;54.302;10.128;2023-04-15T13:20:47;21.23;;;18.83;;
15706;SDS011;7953;54.302;10.128;2023-04-15T13:23:15;20.07;;;17.87;;
15706;SDS011;7953;54.302;10.128;2023-04-15T13:25:42;21.87;;;17.30;;
15706;SDS011;7953;54.302;10.128;2023-04-15T13:28:10;17.97;;;16.13;;
15706;SDS011;7953;54.302;10.128;2023-04-15T13:30:37;21.90;;;18.53;;
15706;SDS011;7953;54.302;10.128;2023-04-15T13:33:04;20.20;;;18.10;;
15706;SDS011;7953;54.302;10.128;2023-04-15T13:35:31;19.50;;;17.20;;
15706;SDS011;7953;54.302;10.128;2023-04-15T13:37:58;20.30;;;18.20;;
15706;SDS011;7953;54.302;10.128;2023-04-15T13:40:27;19.10;;;16.77;;
15706;SDS011;7953;54.302;10.128;2023-04-15T13:42:54;19.90;;;17.90;;
15706;SDS011;7953;54.302;10.128;2023-04-15T13:45:21;20.37;;;18.37;;
15706;SDS011;7953;54.302;10.128;2023-04-15T13:47:48;19.23;;;17.23;;
15706;SDS011;7953;54.302;10.128;2023-04-15T13:50:15;20.77;;;17.43;;
15706;SDS011;7953;54.302;10.128;2023-04-15T13:52:42;18.97;;;17.10;;
15706;SDS011;7953;54.302;10.128;2023-04-15T13:55:09;18.17;;;16.37;;
15706;SDS011;7953;54.302;10.128;2023-04-15T13:57:37;21.10;;;17.83;;
15706;SDS011;7953;54.302;10.128;2023-04-15T14:00:05;17.63;;;15.80;;
15706;SDS011;7953;54.302;10.128;2023-04-15T14:02:32;18.13;;;16.17;;
15706;SDS011;7953;54.302;10.128;2023-04-15T14:04:59;20.83;;;16.70;;
15706;SDS011;7953;54.302;10.128;2023-04-15T14:07:27;17.03;;;15.20;;
15706;SDS011;7953;54.302;10.128;2023-04-15T14:09:54;20.33;;;16.27;;
15706;SDS011;7953;54.302;10.128;2023-04-15T14:12:21;18.43;;;16.43;;
15706;SDS011;7953;54.302;10.128;2023-04-15T14:14:49;18.17;;;16.33;;
15706;SDS011;7953;54.302;10.128;2023-04-15T14:17:16;17.37;;;15.73;;
15706;SDS011;7953;54.302;10.128;2023-04-15T14:19:43;18.30;;;16.40;;
15706;SDS011;7953;54.302;10.128;2023-04-15T14:22:10;20.20;;;16.50;;
15706;SDS011;7953;54.302;10.128;2023-04-15T14:24:37;17.67;;;15.50;;
15706;SDS011;7953;54.302;10.128;2023-04-15T14:27:04;19.43;;;16.07;;
15706;SDS011;7953;54.302;10.128;2023-04-15T14:29:32;16.27;;;14.60;;
15706;SDS011;7953;54.302;10.128;2023-04-15T14:32:01;15.70;;;14.20;;